Marvin, Missouri
Current Conditions -  °F | °C
As of 9:53 PM on Thursday 27 Nov 2014 (Local Time) from KDMO Reporting Station
Clear Clear  
Wind Chill: 23°   Ceiling: Unl
Heat Index: 30°   Visibility: 10mi
Dew Point: 23°   Wind: 7mph
Humidity: 75%   Direction: 130°SE
Pressure: 30.36"   Gusts: NA
Location:  38.4499°N, 92.8168°W
Report Text: KDMO 280353Z AUTO 13006KT 10SM CLR M01/M05 A3036 RMK AO2 SLP290 T10111050
Loading
Personal Weather Stations






























Interactive Weather Map New forecast layout! Learn more

10-Day Weather Forecast

Advertisements
Track Severe Weather on mobile